sensor_id;sensor_type;location;lat;lon;timestamp;pressure;altitude;pressure_sealevel;temperature;humidity
29371;BME280;16357;52.188;7.838;2024-01-25T00:01:23;101778.13;;;10.82;56.65
29371;BME280;16357;52.188;7.838;2024-01-25T00:03:49;101784.50;;;10.81;56.87
29371;BME280;16357;52.188;7.838;2024-01-25T00:06:16;101779.97;;;10.81;56.65
29371;BME280;16357;52.188;7.838;2024-01-25T00:08:43;101774.59;;;10.81;56.65
29371;BME280;16357;52.188;7.838;2024-01-25T00:11:09;101785.34;;;10.81;56.67
29371;BME280;16357;52.188;7.838;2024-01-25T00:13:36;101779.97;;;10.81;56.64
29371;BME280;16357;52.188;7.838;2024-01-25T00:16:04;101785.34;;;10.81;56.72
29371;BME280;16357;52.188;7.838;2024-01-25T00:18:30;101769.22;;;10.81;56.79
29371;BME280;16357;52.188;7.838;2024-01-25T00:20:57;101779.97;;;10.81;56.61
29371;BME280;16357;52.188;7.838;2024-01-25T00:23:24;101780.81;;;10.82;56.74
29371;BME280;16357;52.188;7.838;2024-01-25T00:25:50;101784.38;;;10.82;57.21
29371;BME280;16357;52.188;7.838;2024-01-25T00:28:17;101792.44;;;10.82;56.81
29371;BME280;16357;52.188;7.838;2024-01-25T00:30:43;101787.06;;;10.82;56.96
29371;BME280;16357;52.188;7.838;2024-01-25T00:33:10;101795.09;;;10.82;56.74
29371;BME280;16357;52.188;7.838;2024-01-25T00:35:37;101789.75;;;10.82;56.67
29371;BME280;16357;52.188;7.838;2024-01-25T00:38:04;101787.06;;;10.82;56.86
29371;BME280;16357;52.188;7.838;2024-01-25T00:40:31;101797.78;;;10.82;56.87
29371;BME280;16357;52.188;7.838;2024-01-25T00:42:57;101803.16;;;10.82;56.78
29371;BME280;16357;52.188;7.838;2024-01-25T00:45:24;101799.47;;;10.83;56.77
29371;BME280;16357;52.188;7.838;2024-01-25T00:47:51;101794.97;;;10.84;56.78
29371;BME280;16357;52.188;7.838;2024-01-25T00:50:18;101795.81;;;10.84;56.84
29371;BME280;16357;52.188;7.838;2024-01-25T00:52:50;101789.59;;;10.84;56.69
29371;BME280;16357;52.188;7.838;2024-01-25T00:55:18;101798.50;;;10.84;56.78
29371;BME280;16357;52.188;7.838;2024-01-25T00:57:45;101796.78;;;10.83;56.60
29371;BME280;16357;52.188;7.838;2024-01-25T01:00:12;101798.63;;;10.83;56.72
29371;BME280;16357;52.188;7.838;2024-01-25T01:02:42;101795.94;;;10.83;56.95
29371;BME280;16357;52.188;7.838;2024-01-25T01:05:10;101802.28;;;10.82;56.54
29371;BME280;16357;52.188;7.838;2024-01-25T01:07:38;101801.44;;;10.81;56.73
29371;BME280;16357;52.188;7.838;2024-01-25T01:10:08;101816.69;;;10.81;56.64
29371;BME280;16357;52.188;7.838;2024-01-25T01:12:35;101813.28;;;10.79;56.62
29371;BME280;16357;52.188;7.838;2024-01-25T01:15:02;101805.38;;;10.77;56.66
29371;BME280;16357;52.188;7.838;2024-01-25T01:17:30;101808.19;;;10.75;56.83
29371;BME280;16357;52.188;7.838;2024-01-25T01:19:56;101811.00;;;10.74;56.75
29371;BME280;16357;52.188;7.838;2024-01-25T01:22:23;101816.50;;;10.72;56.77
29371;BME280;16357;52.188;7.838;2024-01-25T01:24:49;101806.88;;;10.70;56.84
29371;BME280;16357;52.188;7.838;2024-01-25T01:27:16;101809.69;;;10.68;56.65
29371;BME280;16357;52.188;7.838;2024-01-25T01:29:42;101812.53;;;10.67;56.90
29371;BME280;16357;52.188;7.838;2024-01-25T01:32:09;101823.38;;;10.65;56.85
29371;BME280;16357;52.188;7.838;2024-01-25T01:34:35;101815.47;;;10.64;56.94
29371;BME280;16357;52.188;7.838;2024-01-25T01:37:02;101812.91;;;10.62;56.87
29371;BME280;16357;52.188;7.838;2024-01-25T01:39:29;101811.22;;;10.61;56.91
29371;BME280;16357;52.188;7.838;2024-01-25T01:41:55;101805.97;;;10.60;56.99
29371;BME280;16357;52.188;7.838;2024-01-25T01:44:22;101811.44;;;10.58;57.11
29371;BME280;16357;52.188;7.838;2024-01-25T01:46:48;101817.06;;;10.55;57.03
29371;BME280;16357;52.188;7.838;2024-01-25T01:49:16;101821.88;;;10.51;56.95
29371;BME280;16357;52.188;7.838;2024-01-25T01:51:43;101817.72;;;10.47;56.98
29371;BME280;16357;52.188;7.838;2024-01-25T01:54:10;101810.94;;;10.43;57.11
29371;BME280;16357;52.188;7.838;2024-01-25T01:56:37;101817.41;;;10.41;57.13
29371;BME280;16357;52.188;7.838;2024-01-25T01:59:09;101822.16;;;10.37;57.07
29371;BME280;16357;52.188;7.838;2024-01-25T02:01:36;101825.25;;;10.32;57.26
29371;BME280;16357;52.188;7.838;2024-01-25T02:04:04;101828.19;;;10.29;57.38
29371;BME280;16357;52.188;7.838;2024-01-25T02:06:31;101826.69;;;10.25;57.17
29371;BME280;16357;52.188;7.838;2024-01-25T02:08:58;101820.75;;;10.22;57.62
29371;BME280;16357;52.188;7.838;2024-01-25T02:11:28;101828.91;;;10.20;57.75
29371;BME280;16357;52.188;7.838;2024-01-25T02:13:55;101828.31;;;10.17;57.73
29371;BME280;16357;52.188;7.838;2024-01-25T02:16:22;101831.13;;;10.15;57.77
29371;BME280;16357;52.188;7.838;2024-01-25T02:18:49;101843.78;;;10.13;57.65
29371;BME280;16357;52.188;7.838;2024-01-25T02:21:16;101839.41;;;10.12;57.72
29371;BME280;16357;52.188;7.838;2024-01-25T02:23:43;101845.78;;;10.11;57.61
29371;BME280;16357;52.188;7.838;2024-01-25T02:26:10;101856.50;;;10.11;57.67
29371;BME280;16357;52.188;7.838;2024-01-25T02:28:36;101860.13;;;10.10;57.57
29371;BME280;16357;52.188;7.838;2024-01-25T02:31:03;101854.03;;;10.08;57.52
29371;BME280;16357;52.188;7.838;2024-01-25T02:33:30;101852.47;;;10.05;57.41
29371;BME280;16357;52.188;7.838;2024-01-25T02:35:57;101847.34;;;10.02;57.17
29371;BME280;16357;52.188;7.838;2024-01-25T02:38:24;101846.75;;;9.99;57.26
29371;BME280;16357;52.188;7.838;2024-01-25T02:40:50;101844.44;;;9.94;57.23
29371;BME280;16357;52.188;7.838;2024-01-25T02:43:17;101857.38;;;9.89;57.24
29371;BME280;16357;52.188;7.838;2024-01-25T02:45:44;101856.03;;;9.83;57.11
29371;BME280;16357;52.188;7.838;2024-01-25T02:48:11;101860.94;;;9.78;57.24
29371;BME280;16357;52.188;7.838;2024-01-25T02:50:37;101857.75;;;9.73;57.34
29371;BME280;16357;52.188;7.838;2024-01-25T02:53:04;101872.41;;;9.69;57.34
29371;BME280;16357;52.188;7.838;2024-01-25T02:55:31;101890.66;;;9.64;57.62
29371;BME280;16357;52.188;7.838;2024-01-25T02:57:58;101892.72;;;9.60;57.52
29371;BME280;16357;52.188;7.838;2024-01-25T03:00:24;101901.84;;;9.58;57.75
29371;BME280;16357;52.188;7.838;2024-01-25T03:02:51;101900.25;;;9.55;57.93
29371;BME280;16357;52.188;7.838;2024-01-25T03:05:18;101901.25;;;9.54;57.95
29371;BME280;16357;52.188;7.838;2024-01-25T03:07:45;101899.56;;;9.53;57.74
29371;BME280;16357;52.188;7.838;2024-01-25T03:10:12;101896.00;;;9.53;57.87
29371;BME280;16357;52.188;7.838;2024-01-25T03:12:40;101892.47;;;9.52;57.76
29371;BME280;16357;52.188;7.838;2024-01-25T03:15:07;101895.88;;;9.54;57.92
29371;BME280;16357;52.188;7.838;2024-01-25T03:17:34;101899.56;;;9.53;57.98
29371;BME280;16357;52.188;7.838;2024-01-25T03:20:00;101902.09;;;9.55;57.81
29371;BME280;16357;52.188;7.838;2024-01-25T03:22:27;101893.94;;;9.56;58.05
29371;BME280;16357;52.188;7.838;2024-01-25T03:24:54;101906.38;;;9.57;57.86
29371;BME280;16357;52.188;7.838;2024-01-25T03:27:20;101908.06;;;9.58;57.81
29371;BME280;16357;52.188;7.838;2024-01-25T03:29:47;101902.84;;;9.57;57.70
29371;BME280;16357;52.188;7.838;2024-01-25T03:32:13;101899.31;;;9.56;57.56
29371;BME280;16357;52.188;7.838;2024-01-25T03:34:40;101899.56;;;9.53;57.57
29371;BME280;16357;52.188;7.838;2024-01-25T03:37:07;101906.00;;;9.51;57.55
29371;BME280;16357;52.188;7.838;2024-01-25T03:39:33;101913.41;;;9.47;57.78
29371;BME280;16357;52.188;7.838;2024-01-25T03:42:00;101906.59;;;9.43;57.80
29371;BME280;16357;52.188;7.838;2024-01-25T03:44:27;101915.72;;;9.40;57.68
29371;BME280;16357;52.188;7.838;2024-01-25T03:46:54;101920.59;;;9.35;57.78
29371;BME280;16357;52.188;7.838;2024-01-25T03:49:20;101916.44;;;9.31;57.80
29371;BME280;16357;52.188;7.838;2024-01-25T03:51:49;101921.94;;;9.30;58.13
29371;BME280;16357;52.188;7.838;2024-01-25T03:54:16;101936.50;;;9.26;58.07
29371;BME280;16357;52.188;7.838;2024-01-25T03:56:43;101933.09;;;9.23;58.02
29371;BME280;16357;52.188;7.838;2024-01-25T03:59:10;101942.34;;;9.19;58.22
29371;BME280;16357;52.188;7.838;2024-01-25T04:01:45;101931.88;;;9.16;58.27
29371;BME280;16357;52.188;7.838;2024-01-25T04:04:14;101930.28;;;9.14;58.33
29371;BME280;16357;52.188;7.838;2024-01-25T04:06:44;101932.34;;;9.10;58.34
29371;BME280;16357;52.188;7.838;2024-01-25T04:09:13;101943.28;;;9.07;58.64
29371;BME280;16357;52.188;7.838;2024-01-25T04:11:41;101936.34;;;9.05;58.40
29371;BME280;16357;52.188;7.838;2024-01-25T04:14:08;101941.94;;;9.01;58.69
29371;BME280;16357;52.188;7.838;2024-01-25T04:16:35;101944.84;;;8.98;58.95
29371;BME280;16357;52.188;7.838;2024-01-25T04:19:01;101944.19;;;8.95;58.82
29371;BME280;16357;52.188;7.838;2024-01-25T04:21:28;101943.50;;;8.93;59.20
29371;BME280;16357;52.188;7.838;2024-01-25T04:23:54;101942.84;;;8.89;58.81
29371;BME280;16357;52.188;7.838;2024-01-25T04:26:21;101939.56;;;8.86;59.34
29371;BME280;16357;52.188;7.838;2024-01-25T04:28:47;101944.41;;;8.81;59.31
29371;BME280;16357;52.188;7.838;2024-01-25T04:31:16;101947.31;;;8.77;59.11
29371;BME280;16357;52.188;7.838;2024-01-25T04:33:42;101951.91;;;8.75;59.42
29371;BME280;16357;52.188;7.838;2024-01-25T04:36:14;101949.56;;;8.71;59.42
29371;BME280;16357;52.188;7.838;2024-01-25T04:38:40;101957.00;;;8.67;59.77
29371;BME280;16357;52.188;7.838;2024-01-25T04:41:07;101964.41;;;8.64;59.49
29371;BME280;16357;52.188;7.838;2024-01-25T04:43:34;101964.59;;;8.61;59.83
29371;BME280;16357;52.188;7.838;2024-01-25T04:46:03;101974.69;;;8.57;59.97
29371;BME280;16357;52.188;7.838;2024-01-25T04:48:29;101970.50;;;8.53;59.94
29371;BME280;16357;52.188;7.838;2024-01-25T04:50:57;101965.41;;;8.50;60.05
29371;BME280;16357;52.188;7.838;2024-01-25T04:53:26;101967.34;;;8.48;59.82
29371;BME280;16357;52.188;7.838;2024-01-25T04:55:54;101965.84;;;8.44;59.96
29371;BME280;16357;52.188;7.838;2024-01-25T04:58:21;101966.09;;;8.41;59.81
29371;BME280;16357;52.188;7.838;2024-01-25T05:00:48;101975.16;;;8.38;59.98
29371;BME280;16357;52.188;7.838;2024-01-25T05:03:17;101979.84;;;8.34;60.27
29371;BME280;16357;52.188;7.838;2024-01-25T05:05:43;101975.56;;;8.32;60.36
29371;BME280;16357;52.188;7.838;2024-01-25T05:08:10;101981.06;;;8.30;60.15
29371;BME280;16357;52.188;7.838;2024-01-25T05:10:37;101976.88;;;8.26;60.50
29371;BME280;16357;52.188;7.838;2024-01-25T05:13:03;101976.25;;;8.23;60.38
29371;BME280;16357;52.188;7.838;2024-01-25T05:15:30;101978.31;;;8.19;60.20
29371;BME280;16357;52.188;7.838;2024-01-25T05:17:57;101974.13;;;8.15;60.42
29371;BME280;16357;52.188;7.838;2024-01-25T05:20:23;101985.16;;;8.10;60.55
29371;BME280;16357;52.188;7.838;2024-01-25T05:22:54;101986.34;;;8.06;60.31
29371;BME280;16357;52.188;7.838;2024-01-25T05:25:21;101986.66;;;8.02;60.73
29371;BME280;16357;52.188;7.838;2024-01-25T05:27:48;101981.63;;;7.97;60.79
29371;BME280;16357;52.188;7.838;2024-01-25T05:30:14;101990.72;;;7.95;60.87
29371;BME280;16357;52.188;7.838;2024-01-25T05:32:41;101991.94;;;7.90;60.90
29371;BME280;16357;52.188;7.838;2024-01-25T05:35:07;101998.44;;;7.86;61.12
29371;BME280;16357;52.188;7.838;2024-01-25T05:37:35;102000.47;;;7.83;60.84
29371;BME280;16357;52.188;7.838;2024-01-25T05:40:01;102002.50;;;7.79;60.81
29371;BME280;16357;52.188;7.838;2024-01-25T05:42:28;102009.88;;;7.76;61.25
29371;BME280;16357;52.188;7.838;2024-01-25T05:44:55;102010.94;;;7.73;61.53
29371;BME280;16357;52.188;7.838;2024-01-25T05:47:21;102010.19;;;7.71;61.19
29371;BME280;16357;52.188;7.838;2024-01-25T05:49:48;102003.38;;;7.67;61.49
29371;BME280;16357;52.188;7.838;2024-01-25T05:52:15;102008.91;;;7.64;61.66
29371;BME280;16357;52.188;7.838;2024-01-25T05:54:41;102018.72;;;7.63;61.56
29371;BME280;16357;52.188;7.838;2024-01-25T05:57:09;102011.78;;;7.61;61.69
29371;BME280;16357;52.188;7.838;2024-01-25T05:59:36;102006.56;;;7.59;61.67
29371;BME280;16357;52.188;7.838;2024-01-25T06:02:02;101996.94;;;7.57;61.61
29371;BME280;16357;52.188;7.838;2024-01-25T06:04:29;101992.66;;;7.54;61.68
29371;BME280;16357;52.188;7.838;2024-01-25T06:06:56;101994.72;;;7.51;61.11
29371;BME280;16357;52.188;7.838;2024-01-25T06:09:23;101995.88;;;7.46;61.66
29371;BME280;16357;52.188;7.838;2024-01-25T06:11:50;101996.09;;;7.43;61.49
29371;BME280;16357;52.188;7.838;2024-01-25T06:14:17;101988.38;;;7.39;61.71
29371;BME280;16357;52.188;7.838;2024-01-25T06:16:44;101996.69;;;7.34;61.84
29371;BME280;16357;52.188;7.838;2024-01-25T06:19:11;102007.72;;;7.30;61.72
29371;BME280;16357;52.188;7.838;2024-01-25T06:21:38;102008.84;;;7.25;61.82
29371;BME280;16357;52.188;7.838;2024-01-25T06:24:04;102007.38;;;7.21;62.32
29371;BME280;16357;52.188;7.838;2024-01-25T06:26:31;102016.44;;;7.19;61.92
29371;BME280;16357;52.188;7.838;2024-01-25T06:28:58;102014.06;;;7.14;62.21
29371;BME280;16357;52.188;7.838;2024-01-25T06:31:25;102008.94;;;7.11;62.23
29371;BME280;16357;52.188;7.838;2024-01-25T06:33:52;102018.94;;;7.08;62.66
29371;BME280;16357;52.188;7.838;2024-01-25T06:36:19;102012.13;;;7.03;62.72
29371;BME280;16357;52.188;7.838;2024-01-25T06:38:46;102024.69;;;7.01;62.70
29371;BME280;16357;52.188;7.838;2024-01-25T06:41:13;102033.84;;;6.97;62.47
29371;BME280;16357;52.188;7.838;2024-01-25T06:43:40;102035.78;;;6.95;62.62
29371;BME280;16357;52.188;7.838;2024-01-25T06:46:07;102042.28;;;6.91;62.85
29371;BME280;16357;52.188;7.838;2024-01-25T06:48:33;102047.69;;;6.90;62.66
29371;BME280;16357;52.188;7.838;2024-01-25T06:51:00;102040.88;;;6.86;62.98
29371;BME280;16357;52.188;7.838;2024-01-25T06:53:27;102049.91;;;6.83;62.69
29371;BME280;16357;52.188;7.838;2024-01-25T06:55:54;102053.63;;;6.80;63.00
29371;BME280;16357;52.188;7.838;2024-01-25T06:58:20;102059.19;;;6.77;62.87
29371;BME280;16357;52.188;7.838;2024-01-25T07:00:47;102063.75;;;6.75;63.26
29371;BME280;16357;52.188;7.838;2024-01-25T07:03:15;102059.47;;;6.73;63.43
29371;BME280;16357;52.188;7.838;2024-01-25T07:05:42;102057.84;;;6.70;63.39
29371;BME280;16357;52.188;7.838;2024-01-25T07:08:09;102063.38;;;6.67;63.47
29371;BME280;16357;52.188;7.838;2024-01-25T07:10:40;102062.75;;;6.64;63.27
29371;BME280;16357;52.188;7.838;2024-01-25T07:13:06;102066.34;;;6.63;63.24
29371;BME280;16357;52.188;7.838;2024-01-25T07:15:33;102071.88;;;6.59;63.25
29371;BME280;16357;52.188;7.838;2024-01-25T07:18:00;102057.78;;;6.57;63.52
29371;BME280;16357;52.188;7.838;2024-01-25T07:20:27;102062.34;;;6.55;63.64
29371;BME280;16357;52.188;7.838;2024-01-25T07:22:54;102061.63;;;6.53;63.42
29371;BME280;16357;52.188;7.838;2024-01-25T07:25:21;102075.03;;;6.52;64.09
29371;BME280;16357;52.188;7.838;2024-01-25T07:27:47;102077.81;;;6.50;63.91
29371;BME280;16357;52.188;7.838;2024-01-25T07:30:16;102081.41;;;6.49;63.75
29371;BME280;16357;52.188;7.838;2024-01-25T07:32:42;102079.72;;;6.48;64.22
29371;BME280;16357;52.188;7.838;2024-01-25T07:35:09;102081.53;;;6.48;64.12
29371;BME280;16357;52.188;7.838;2024-01-25T07:37:36;102085.97;;;6.47;63.87
29371;BME280;16357;52.188;7.838;2024-01-25T07:40:03;102077.13;;;6.47;64.38
29371;BME280;16357;52.188;7.838;2024-01-25T07:42:30;102084.28;;;6.46;64.12
29371;BME280;16357;52.188;7.838;2024-01-25T07:44:57;102077.13;;;6.47;64.36
29371;BME280;16357;52.188;7.838;2024-01-25T07:47:24;102082.38;;;6.48;64.50
29371;BME280;16357;52.188;7.838;2024-01-25T07:49:50;102075.22;;;6.49;64.63
29371;BME280;16357;52.188;7.838;2024-01-25T07:52:17;102076.06;;;6.49;64.25
29371;BME280;16357;52.188;7.838;2024-01-25T07:54:44;102068.94;;;6.50;64.27
29371;BME280;16357;52.188;7.838;2024-01-25T07:57:11;102081.22;;;6.52;64.58
29371;BME280;16357;52.188;7.838;2024-01-25T07:59:37;102083.03;;;6.52;64.45
29371;BME280;16357;52.188;7.838;2024-01-25T08:02:04;102084.63;;;6.54;64.46
29371;BME280;16357;52.188;7.838;2024-01-25T08:04:31;102089.97;;;6.54;64.73
29371;BME280;16357;52.188;7.838;2024-01-25T08:06:58;102096.06;;;6.56;64.48
29371;BME280;16357;52.188;7.838;2024-01-25T08:09:25;102104.84;;;6.58;64.91
29371;BME280;16357;52.188;7.838;2024-01-25T08:11:51;102108.34;;;6.59;64.64
29371;BME280;16357;52.188;7.838;2024-01-25T08:14:18;102108.06;;;6.64;64.78
29371;BME280;16357;52.188;7.838;2024-01-25T08:16:44;102109.78;;;6.65;64.90
29371;BME280;16357;52.188;7.838;2024-01-25T08:19:11;102106.91;;;6.68;65.16
29371;BME280;16357;52.188;7.838;2024-01-25T08:21:38;102100.53;;;6.70;64.93
29371;BME280;16357;52.188;7.838;2024-01-25T08:24:05;102101.16;;;6.74;65.01
29371;BME280;16357;52.188;7.838;2024-01-25T08:26:31;102100.03;;;6.78;65.14
29371;BME280;16357;52.188;7.838;2024-01-25T08:28:57;102096.22;;;6.82;65.13
29371;BME280;16357;52.188;7.838;2024-01-25T08:31:24;102099.53;;;6.86;65.17
29371;BME280;16357;52.188;7.838;2024-01-25T08:33:50;102102.66;;;6.92;65.64
29371;BME280;16357;52.188;7.838;2024-01-25T08:36:17;102094.47;;;6.95;65.43
29371;BME280;16357;52.188;7.838;2024-01-25T08:38:47;102095.97;;;6.99;65.50
29371;BME280;16357;52.188;7.838;2024-01-25T08:41:13;102095.69;;;7.04;65.64
29371;BME280;16357;52.188;7.838;2024-01-25T08:43:42;102102.44;;;7.10;65.75
29371;BME280;16357;52.188;7.838;2024-01-25T08:46:08;102095.06;;;7.13;66.02
29371;BME280;16357;52.188;7.838;2024-01-25T08:48:35;102100.97;;;7.18;65.99
29371;BME280;16357;52.188;7.838;2024-01-25T08:51:02;102096.94;;;7.25;65.98
29371;BME280;16357;52.188;7.838;2024-01-25T08:53:29;102098.25;;;7.33;66.34
29371;BME280;16357;52.188;7.838;2024-01-25T08:55:55;102100.41;;;7.40;66.39
29371;BME280;16357;52.188;7.838;2024-01-25T08:58:22;102099.78;;;7.50;66.38
29371;BME280;16357;52.188;7.838;2024-01-25T09:00:49;102099.19;;;7.59;66.42
29371;BME280;16357;52.188;7.838;2024-01-25T09:03:16;102101.22;;;7.68;66.23
29371;BME280;16357;52.188;7.838;2024-01-25T09:05:42;102101.53;;;7.76;65.67
29371;BME280;16357;52.188;7.838;2024-01-25T09:08:12;102105.59;;;7.82;65.38
29371;BME280;16357;52.188;7.838;2024-01-25T09:10:40;102108.72;;;7.88;65.45
29371;BME280;16357;52.188;7.838;2024-01-25T09:13:07;102108.50;;;7.91;65.31
29371;BME280;16357;52.188;7.838;2024-01-25T09:15:33;102114.41;;;7.97;65.42
29371;BME280;16357;52.188;7.838;2024-01-25T09:18:00;102116.63;;;8.03;65.35
29371;BME280;16357;52.188;7.838;2024-01-25T09:20:27;102111.84;;;8.08;65.15
29371;BME280;16357;52.188;7.838;2024-01-25T09:22:53;102117.00;;;8.11;65.12
29371;BME280;16357;52.188;7.838;2024-01-25T09:25:21;102109.47;;;8.16;65.15
29371;BME280;16357;52.188;7.838;2024-01-25T09:27:48;102116.13;;;8.23;64.87
29371;BME280;16357;52.188;7.838;2024-01-25T09:30:15;102120.31;;;8.27;64.90
29371;BME280;16357;52.188;7.838;2024-01-25T09:32:42;102120.94;;;8.31;64.74
29371;BME280;16357;52.188;7.838;2024-01-25T09:35:09;102125.75;;;8.39;64.64
29371;BME280;16357;52.188;7.838;2024-01-25T09:37:36;102124.69;;;8.41;64.92
29371;BME280;16357;52.188;7.838;2024-01-25T09:40:03;102134.22;;;8.45;64.64
29371;BME280;16357;52.188;7.838;2024-01-25T09:42:30;102146.31;;;8.51;64.65
29371;BME280;16357;52.188;7.838;2024-01-25T09:44:57;102144.16;;;8.56;64.36
29371;BME280;16357;52.188;7.838;2024-01-25T09:47:24;102142.97;;;8.60;64.63
29371;BME280;16357;52.188;7.838;2024-01-25T09:49:50;102144.34;;;8.66;64.29
29371;BME280;16357;52.188;7.838;2024-01-25T09:52:19;102153.75;;;8.71;64.28
29371;BME280;16357;52.188;7.838;2024-01-25T09:54:53;102146.25;;;8.76;64.12
29371;BME280;16357;52.188;7.838;2024-01-25T09:57:24;102146.06;;;8.79;63.76
29371;BME280;16357;52.188;7.838;2024-01-25T09:59:51;102140.47;;;8.83;64.26
29371;BME280;16357;52.188;7.838;2024-01-25T10:02:17;102144.63;;;8.87;64.07
29371;BME280;16357;52.188;7.838;2024-01-25T10:04:49;102143.31;;;8.92;63.56
29371;BME280;16357;52.188;7.838;2024-01-25T10:10:04;102147.41;;;8.98;63.53
29371;BME280;16357;52.188;7.838;2024-01-25T10:12:32;102152.63;;;8.99;63.39
29371;BME280;16357;52.188;7.838;2024-01-25T10:14:59;102146.19;;;9.02;63.65
29371;BME280;16357;52.188;7.838;2024-01-25T10:17:25;102144.16;;;9.06;63.75
29371;BME280;16357;52.188;7.838;2024-01-25T10:20:14;102148.22;;;9.11;63.60
29371;BME280;16357;52.188;7.838;2024-01-25T10:22:43;102134.59;;;9.14;63.52
29371;BME280;16357;52.188;7.838;2024-01-25T10:25:13;102136.81;;;9.20;63.61
29371;BME280;16357;52.188;7.838;2024-01-25T10:27:43;102144.63;;;9.23;63.39
29371;BME280;16357;52.188;7.838;2024-01-25T10:30:11;102139.91;;;9.27;63.46
29371;BME280;16357;52.188;7.838;2024-01-25T10:32:39;102145.88;;;9.31;63.23
29371;BME280;16357;52.188;7.838;2024-01-25T10:35:08;102144.72;;;9.35;63.34
29371;BME280;16357;52.188;7.838;2024-01-25T10:37:37;102143.50;;;9.39;63.18
29371;BME280;16357;52.188;7.838;2024-01-25T10:40:09;102139.63;;;9.43;62.79
29371;BME280;16357;52.188;7.838;2024-01-25T10:42:36;102132.31;;;9.45;63.00
29371;BME280;16357;52.188;7.838;2024-01-25T10:45:03;102126.75;;;9.48;62.85
29371;BME280;16357;52.188;7.838;2024-01-25T10:47:31;102127.38;;;9.52;62.75
29371;BME280;16357;52.188;7.838;2024-01-25T10:50:01;102123.59;;;9.54;62.82
29371;BME280;16357;52.188;7.838;2024-01-25T10:52:31;102125.06;;;9.58;62.96
29371;BME280;16357;52.188;7.838;2024-01-25T10:54:58;102133.75;;;9.62;62.50
29371;BME280;16357;52.188;7.838;2024-01-25T10:57:25;102138.75;;;9.66;62.75
29371;BME280;16357;52.188;7.838;2024-01-25T10:59:52;102133.03;;;9.71;62.35
29371;BME280;16357;52.188;7.838;2024-01-25T11:02:18;102120.97;;;9.77;62.63
29371;BME280;16357;52.188;7.838;2024-01-25T11:04:54;102108.84;;;9.84;62.51
29371;BME280;16357;52.188;7.838;2024-01-25T11:07:21;102106.66;;;9.89;62.33
29371;BME280;16357;52.188;7.838;2024-01-25T11:09:51;102100.81;;;9.95;62.09
29371;BME280;16357;52.188;7.838;2024-01-25T11:12:19;102086.94;;;10.01;62.35
29371;BME280;16357;52.188;7.838;2024-01-25T11:14:54;102080.25;;;10.07;62.08
29371;BME280;16357;52.188;7.838;2024-01-25T11:17:22;102082.56;;;10.11;61.75
29371;BME280;16357;52.188;7.838;2024-01-25T11:19:49;102090.22;;;10.16;61.61
29371;BME280;16357;52.188;7.838;2024-01-25T11:22:17;102080.13;;;10.20;61.44
29371;BME280;16357;52.188;7.838;2024-01-25T11:24:44;102071.84;;;10.23;61.69
29371;BME280;16357;52.188;7.838;2024-01-25T11:27:12;102076.00;;;10.27;61.49
29371;BME280;16357;52.188;7.838;2024-01-25T11:29:38;102074.69;;;10.32;61.35
29371;BME280;16357;52.188;7.838;2024-01-25T11:32:09;102072.50;;;10.38;61.52
29371;BME280;16357;52.188;7.838;2024-01-25T11:34:36;102076.53;;;10.43;61.28
29371;BME280;16357;52.188;7.838;2024-01-25T11:37:03;102068.97;;;10.48;60.98
29371;BME280;16357;52.188;7.838;2024-01-25T11:39:29;102071.13;;;10.54;61.00
29371;BME280;16357;52.188;7.838;2024-01-25T11:41:56;102071.63;;;10.60;60.56
29371;BME280;16357;52.188;7.838;2024-01-25T11:44:23;102060.63;;;10.63;60.40
29371;BME280;16357;52.188;7.838;2024-01-25T11:46:54;102051.38;;;10.67;60.31
29371;BME280;16357;52.188;7.838;2024-01-25T11:49:23;102053.81;;;10.70;60.42
29371;BME280;16357;52.188;7.838;2024-01-25T11:51:50;102051.84;;;10.72;60.20
29371;BME280;16357;52.188;7.838;2024-01-25T11:54:17;102045.38;;;10.74;59.94
29371;BME280;16357;52.188;7.838;2024-01-25T11:56:44;102050.59;;;10.76;59.83
29371;BME280;16357;52.188;7.838;2024-01-25T11:59:11;102050.59;;;10.76;59.73
29371;BME280;16357;52.188;7.838;2024-01-25T12:01:39;102056.81;;;10.76;59.62
29371;BME280;16357;52.188;7.838;2024-01-25T12:04:07;102048.78;;;10.76;59.67
29371;BME280;16357;52.188;7.838;2024-01-25T12:06:34;102053.19;;;10.77;59.66
29371;BME280;16357;52.188;7.838;2024-01-25T12:09:11;102072.56;;;10.81;59.73
29371;BME280;16357;52.188;7.838;2024-01-25T12:11:40;102072.56;;;10.81;59.76
29371;BME280;16357;52.188;7.838;2024-01-25T12:14:07;102066.94;;;10.84;59.96
29371;BME280;16357;52.188;7.838;2024-01-25T12:16:34;102055.81;;;10.89;60.08
29371;BME280;16357;52.188;7.838;2024-01-25T12:19:04;102050.09;;;10.93;59.57
29371;BME280;16357;52.188;7.838;2024-01-25T12:21:32;102055.66;;;11.02;59.71
29371;BME280;16357;52.188;7.838;2024-01-25T12:23:59;102053.47;;;11.07;59.83
29371;BME280;16357;52.188;7.838;2024-01-25T12:26:26;102040.13;;;11.16;59.25
29371;BME280;16357;52.188;7.838;2024-01-25T12:28:52;102037.75;;;11.23;59.01
29371;BME280;16357;52.188;7.838;2024-01-25T12:31:19;102029.06;;;11.31;58.89
29371;BME280;16357;52.188;7.838;2024-01-25T12:33:45;102022.19;;;11.38;58.51
29371;BME280;16357;52.188;7.838;2024-01-25T12:36:12;102015.56;;;11.42;58.38
29371;BME280;16357;52.188;7.838;2024-01-25T12:38:39;102015.28;;;11.45;58.12
29371;BME280;16357;52.188;7.838;2024-01-25T12:41:05;102019.56;;;11.48;57.73
29371;BME280;16357;52.188;7.838;2024-01-25T12:43:32;102021.41;;;11.47;57.57
29371;BME280;16357;52.188;7.838;2024-01-25T12:45:59;102023.25;;;11.47;57.77
29371;BME280;16357;52.188;7.838;2024-01-25T12:48:42;102017.88;;;11.47;57.61
29371;BME280;16357;52.188;7.838;2024-01-25T12:51:10;102017.88;;;11.47;57.69
29371;BME280;16357;52.188;7.838;2024-01-25T12:53:37;102018.59;;;11.49;57.84
29371;BME280;16357;52.188;7.838;2024-01-25T12:56:04;102022.97;;;11.50;57.54
29371;BME280;16357;52.188;7.838;2024-01-25T12:58:31;102023.59;;;11.53;57.39
29371;BME280;16357;52.188;7.838;2024-01-25T13:00:58;102013.69;;;11.54;57.02